Time,TemperatureF,DewpointF,PressureIn,WindDirection,WindDirectionDegrees,WindSpeedMPH,WindSpeedGustMPH,Humidity,HourlyPrecipIn,Conditions,Clouds,dailyrainin,SoftwareType,DateUTC
2013-06-11 00:00:00,64.6,64.0,29.66,SSE,167,0.0,4.0,98,0.00,,,0.00,Wunderground v.1.15,2013-06-11 04:00:00,
2013-06-11 00:05:00,64.6,64.0,29.66,SSE,167,0.0,4.0,98,0.00,,,0.00,Wunderground v.1.15,2013-06-11 04:05:00,
2013-06-11 00:10:00,64.7,64.1,29.66,SSE,167,0.0,4.0,98,0.00,,,0.00,Wunderground v.1.15,2013-06-11 04:10:00,
2013-06-11 00:15:00,64.8,64.2,29.66,SSE,167,0.0,4.0,98,0.00,,,0.00,Wunderground v.1.15,2013-06-11 04:15:00,
2013-06-11 00:20:00,64.7,64.1,29.66,SSE,167,0.0,4.0,98,0.00,,,0.00,Wunderground v.1.15,2013-06-11 04:20:00,
2013-06-11 00:25:00,64.7,64.1,29.65,SSE,167,0.0,4.0,98,0.00,,,0.01,Wunderground v.1.15,2013-06-11 04:25:00,
2013-06-11 00:35:00,64.6,64.0,29.65,SSE,167,0.0,4.0,98,0.08,,,0.02,Wunderground v.1.15,2013-06-11 04:35:00,
2013-06-11 08:40:00,61.0,60.4,29.62,SW,221,2.0,2.0,98,0.04,,,0.18,Wunderground v.1.15,2013-06-11 12:40:00,
2013-06-11 08:45:00,60.9,60.3,29.62,WSW,254,2.0,2.0,98,0.04,,,0.18,Wunderground v.1.15,2013-06-11 12:45:00,
2013-06-11 08:50:00,61.0,60.4,29.62,West,265,2.0,2.0,98,0.00,,,0.18,Wunderground v.1.15,2013-06-11 12:50:00,
2013-06-11 08:55:00,60.9,60.3,29.63,West,267,2.0,3.0,98,0.00,,,0.18,Wunderground v.1.15,2013-06-11 12:55:00,
2013-06-11 09:00:00,60.9,60.3,29.62,West,271,2.0,2.0,98,0.00,,,0.18,Wunderground v.1.15,2013-06-11 13:00:00,
2013-06-11 09:10:00,61.1,60.5,29.63,WNW,288,2.0,2.0,98,0.00,,,0.18,Wunderground v.1.15,2013-06-11 13:10:00,
2013-06-11 09:15:00,61.2,60.6,29.63,WNW,290,1.0,2.0,98,0.00,,,0.18,Wunderground v.1.15,2013-06-11 13:15:00,
2013-06-11 09:20:00,61.1,60.5,29.63,WSW,257,2.0,6.0,98,0.00,,,0.18,Wunderground v.1.15,2013-06-11 13:20:00,
2013-06-11 09:30:00,61.0,60.4,29.62,West,263,2.0,2.0,98,0.00,,,0.18,Wunderground v.1.15,2013-06-11 13:30:00,
2013-06-11 09:40:00,61.1,60.5,29.62,WNW,290,2.0,2.0,98,0.00,,,0.18,Wunderground v.1.15,2013-06-11 13:40:00,
2013-06-11 09:45:00,61.1,60.5,29.62,WNW,282,2.0,8.0,98,0.00,,,0.18,Wunderground v.1.15,2013-06-11 13:45:00,
2013-06-11 09:50:00,61.1,60.5,29.63,West,263,3.0,3.0,98,0.00,,,0.18,Wunderground v.1.15,2013-06-11 13:50:00,
2013-06-11 09:55:00,61.3,60.7,29.63,WSW,243,3.0,11.0,98,0.00,,,0.18,Wunderground v.1.15,2013-06-11 13:55:00,
2013-06-11 10:00:00,61.3,60.7,29.63,West,275,2.0,2.0,98,0.00,,,0.18,Wunderground v.1.15,2013-06-11 14:00:00,
2013-06-11 10:05:00,61.4,60.8,29.63,NW,314,2.0,3.0,98,0.00,,,0.18,Wunderground v.1.15,2013-06-11 14:05:00,
2013-06-11 10:15:00,61.6,61.0,29.63,WSW,255,3.0,11.0,98,0.00,,,0.18,Wunderground v.1.15,2013-06-11 14:15:00,
2013-06-11 10:20:00,61.8,61.2,29.63,West,263,2.0,11.0,98,0.00,,,0.18,Wunderground v.1.15,2013-06-11 14:20:00,
2013-06-11 10:25:00,61.8,61.2,29.63,NW,323,2.0,11.0,98,0.00,,,0.18,Wunderground v.1.15,2013-06-11 14:25:00,
2013-06-11 10:30:00,61.8,61.2,29.63,WNW,289,2.0,11.0,98,0.00,,,0.18,Wunderground v.1.15,2013-06-11 14:30:00,
2013-06-11 10:35:00,61.8,61.2,29.63,NW,319,2.0,11.0,98,0.00,,,0.18,Wunderground v.1.15,2013-06-11 14:35:00,
2013-06-11 10:40:00,61.8,61.2,29.63,West,271,3.0,11.0,98,0.00,,,0.18,Wunderground v.1.15,2013-06-11 14:40:00,
2013-06-11 10:45:00,61.8,61.2,29.63,West,269,3.0,11.0,98,0.00,,,0.18,Wunderground v.1.15,2013-06-11 14:45:00,
2013-06-11 10:50:00,61.8,61.2,29.63,WNW,296,3.0,11.0,98,0.00,,,0.18,Wunderground v.1.15,2013-06-11 14:50:00,
2013-06-11 11:00:00,61.8,61.2,29.64,SSW,205,2.0,2.0,98,0.00,,,0.18,Wunderground v.1.15,2013-06-11 15:00:00,
2013-06-11 11:05:00,61.9,61.3,29.64,NW,315,2.0,3.0,98,0.00,,,0.18,Wunderground v.1.15,2013-06-11 15:05:00,
2013-06-11 11:10:00,62.1,61.5,29.64,NNE,21,1.0,11.0,98,0.00,,,0.18,Wunderground v.1.15,2013-06-11 15:10:00,
2013-06-11 11:15:00,62.1,61.5,29.64,NNW,331,1.0,11.0,98,0.00,,,0.18,Wunderground v.1.15,2013-06-11 15:15:00,
2013-06-11 11:20:00,62.2,61.6,29.64,WNW,295,2.0,2.0,98,0.00,,,0.18,Wunderground v.1.15,2013-06-11 15:20:00,
2013-06-11 11:25:00,62.3,61.7,29.64,WSW,252,2.0,11.0,98,0.00,,,0.18,Wunderground v.1.15,2013-06-11 15:25:00,
2013-06-11 11:30:00,62.7,62.1,29.65,WNW,298,1.0,11.0,98,0.00,,,0.18,Wunderground v.1.15,2013-06-11 15:30:00,
2013-06-11 11:40:00,62.9,62.3,29.65,West,263,2.0,11.0,98,0.00,,,0.18,Wunderground v.1.15,2013-06-11 15:40:00,
2013-06-11 11:45:00,62.9,62.0,29.66,WNW,288,2.0,11.0,97,0.00,,,0.18,Wunderground v.1.15,2013-06-11 15:45:00,
2013-06-11 11:50:00,62.8,61.9,29.66,West,261,2.0,2.0,97,0.00,,,0.18,Wunderground v.1.15,2013-06-11 15:50:00,
2013-06-11 11:55:00,62.7,61.8,29.66,NNW,327,2.0,11.0,97,0.00,,,0.18,Wunderground v.1.15,2013-06-11 15:55:00,
2013-06-11 12:00:00,62.6,61.7,29.66,West,277,2.0,2.0,97,0.00,,,0.18,Wunderground v.1.15,2013-06-11 16:00:00,
2013-06-11 12:05:00,62.6,61.7,29.66,WNW,282,1.0,11.0,97,0.00,,,0.18,Wunderground v.1.15,2013-06-11 16:05:00,
2013-06-11 12:10:00,62.6,61.7,29.67,WNW,282,1.0,11.0,97,0.00,,,0.18,Wunderground v.1.15,2013-06-11 16:10:00,
2013-06-11 12:20:00,62.3,61.4,29.67,NNW,331,2.0,11.0,97,0.00,,,0.18,Wunderground v.1.15,2013-06-11 16:20:00,
2013-06-11 12:25:00,62.3,61.4,29.67,West,268,2.0,11.0,97,0.00,,,0.18,Wunderground v.1.15,2013-06-11 16:25:00,
2013-06-11 12:30:00,62.3,61.4,29.67,West,270,1.0,11.0,97,0.00,,,0.18,Wunderground v.1.15,2013-06-11 16:30:00,
2013-06-11 12:35:00,62.6,61.7,29.67,West,263,1.0,11.0,97,0.00,,,0.18,Wunderground v.1.15,2013-06-11 16:35:00,
2013-06-11 12:40:00,63.2,62.3,29.67,West,271,1.0,11.0,97,0.00,,,0.18,Wunderground v.1.15,2013-06-11 16:40:00,
2013-06-11 12:45:00,63.1,62.2,29.68,West,275,2.0,11.0,97,0.00,,,0.18,Wunderground v.1.15,2013-06-11 16:45:00,
2013-06-11 12:55:00,63.1,61.9,29.67,West,262,1.0,11.0,96,0.00,,,0.18,Wunderground v.1.15,2013-06-11 16:55:00,
2013-06-11 13:00:00,63.1,61.9,29.67,WNW,296,1.0,1.0,96,0.00,,,0.18,Wunderground v.1.15,2013-06-11 17:00:00,
2013-06-11 13:10:00,63.2,62.0,29.67,NW,306,2.0,2.0,96,0.00,,,0.18,Wunderground v.1.15,2013-06-11 17:10:00,
2013-06-11 13:20:00,63.6,62.4,29.67,NW,314,2.0,2.0,96,0.00,,,0.18,Wunderground v.1.15,2013-06-11 17:20:00,
2013-06-11 13:25:00,64.0,63.1,29.67,WNW,301,1.0,11.0,97,0.00,,,0.18,Wunderground v.1.15,2013-06-11 17:25:00,
2013-06-11 13:30:00,63.9,62.7,29.67,NW,305,2.0,2.0,96,0.00,,,0.18,Wunderground v.1.15,2013-06-11 17:30:00,
2013-06-11 13:35:00,63.9,62.7,29.67,North,360,2.0,11.0,96,0.00,,,0.18,Wunderground v.1.15,2013-06-11 17:35:00,
2013-06-11 13:40:00,64.6,63.4,29.67,WNW,291,2.0,2.0,96,0.00,,,0.18,Wunderground v.1.15,2013-06-11 17:40:00,
2013-06-11 13:45:00,65.4,64.2,29.67,WNW,282,2.0,11.0,96,0.00,,,0.18,Wunderground v.1.15,2013-06-11 17:45:00,
2013-06-11 13:50:00,65.5,64.0,29.67,NNE,16,2.0,11.0,95,0.00,,,0.18,Wunderground v.1.15,2013-06-11 17:50:00,
2013-06-11 14:00:00,65.7,63.9,29.67,NNW,343,3.0,3.0,94,0.00,,,0.18,Wunderground v.1.15,2013-06-11 18:00:00,
2013-06-11 14:05:00,66.3,64.5,29.67,NW,313,2.0,11.0,94,0.00,,,0.18,Wunderground v.1.15,2013-06-11 18:05:00,
2013-06-11 14:10:00,66.0,63.6,29.67,WSW,254,2.0,11.0,92,0.00,,,0.18,Wunderground v.1.15,2013-06-11 18:10:00,
2013-06-11 14:15:00,65.6,62.9,29.67,West,269,2.0,11.0,91,0.00,,,0.18,Wunderground v.1.15,2013-06-11 18:15:00,
2013-06-11 14:20:00,65.3,62.6,29.68,West,259,2.0,11.0,91,0.00,,,0.18,Wunderground v.1.15,2013-06-11 18:20:00,
2013-06-11 14:25:00,65.2,62.5,29.68,NNW,339,2.0,11.0,91,0.00,,,0.18,Wunderground v.1.15,2013-06-11 18:25:00,
2013-06-11 14:30:00,65.0,62.6,29.68,WNW,288,2.0,11.0,92,0.00,,,0.18,Wunderground v.1.15,2013-06-11 18:30:00,
2013-06-11 14:40:00,64.6,62.2,29.68,West,270,2.0,2.0,92,0.00,,,0.18,Wunderground v.1.15,2013-06-11 18:40:00,
2013-06-11 14:45:00,65.0,62.9,29.68,North,5,1.0,5.0,93,0.00,,,0.18,Wunderground v.1.15,2013-06-11 18:45:00,
2013-06-11 14:50:00,65.2,63.1,29.68,WSW,248,1.0,11.0,93,0.00,,,0.18,Wunderground v.1.15,2013-06-11 18:50:00,
2013-06-11 14:55:00,65.8,63.7,29.68,NW,314,2.0,11.0,93,0.00,,,0.18,Wunderground v.1.15,2013-06-11 18:55:00,
2013-06-11 15:00:00,66.0,63.6,29.68,West,268,2.0,2.0,92,0.00,,,0.18,Wunderground v.1.15,2013-06-11 19:00:00,
2013-06-11 15:05:00,66.3,63.6,29.68,WNW,282,2.0,3.0,91,0.00,,,0.18,Wunderground v.1.15,2013-06-11 19:05:00,
2013-06-11 15:15:00,66.4,63.1,29.69,NNW,347,3.0,11.0,89,0.00,,,0.18,Wunderground v.1.15,2013-06-11 19:15:00,
2013-06-11 15:20:00,66.4,62.7,29.69,WNW,283,3.0,3.0,88,0.00,,,0.18,Wunderground v.1.15,2013-06-11 19:20:00,
2013-06-11 15:25:00,66.6,62.9,29.69,NW,320,3.0,11.0,88,0.00,,,0.18,Wunderground v.1.15,2013-06-11 19:25:00,
2013-06-11 15:30:00,66.9,62.9,29.69,NW,318,2.0,11.0,87,0.00,,,0.18,Wunderground v.1.15,2013-06-11 19:30:00,
2013-06-11 15:35:00,66.9,62.6,29.69,North,5,2.0,11.0,86,0.00,,,0.18,Wunderground v.1.15,2013-06-11 19:35:00,
2013-06-11 15:40:00,66.7,62.0,29.69,North,355,2.0,2.0,85,0.00,,,0.18,Wunderground v.1.15,2013-06-11 19:40:00,
2013-06-11 15:45:00,66.7,62.0,29.69,West,266,2.0,11.0,85,0.00,,,0.18,Wunderground v.1.15,2013-06-11 19:45:00,
2013-06-11 15:50:00,66.9,62.2,29.69,WSW,240,2.0,11.0,85,0.00,,,0.18,Wunderground v.1.15,2013-06-11 19:50:00,
2013-06-11 16:00:00,67.2,62.2,29.70,NW,320,2.0,11.0,84,0.00,,,0.18,Wunderground v.1.15,2013-06-11 20:00:00,
2013-06-11 16:05:00,67.0,61.7,29.70,WNW,290,2.0,11.0,83,0.00,,,0.18,Wunderground v.1.15,2013-06-11 20:05:00,
2013-06-11 16:10:00,66.8,61.5,29.70,West,281,3.0,3.0,83,0.00,,,0.18,Wunderground v.1.15,2013-06-11 20:10:00,
2013-06-11 16:15:00,66.6,61.3,29.70,North,351,3.0,11.0,83,0.00,,,0.18,Wunderground v.1.15,2013-06-11 20:15:00,
2013-06-11 16:20:00,66.4,61.1,29.69,West,275,3.0,3.0,83,0.00,,,0.18,Wunderground v.1.15,2013-06-11 20:20:00,
2013-06-11 16:25:00,66.5,61.5,29.70,West,263,2.0,11.0,84,0.00,,,0.18,Wunderground v.1.15,2013-06-11 20:25:00,
2013-06-11 16:30:00,66.5,61.5,29.70,North,355,2.0,2.0,84,0.00,,,0.18,Wunderground v.1.15,2013-06-11 20:30:00,
2013-06-11 16:40:00,66.9,61.9,29.70,NNW,329,2.0,11.0,84,0.00,,,0.18,Wunderground v.1.15,2013-06-11 20:40:00,
2013-06-11 16:45:00,67.0,61.7,29.70,North,350,2.0,11.0,83,0.00,,,0.18,Wunderground v.1.15,2013-06-11 20:45:00,
2013-06-11 16:50:00,67.2,61.9,29.70,NW,315,1.0,1.0,83,0.00,,,0.18,Wunderground v.1.15,2013-06-11 20:50:00,
2013-06-11 16:55:00,67.2,61.5,29.70,West,273,2.0,2.0,82,0.00,,,0.18,Wunderground v.1.15,2013-06-11 20:55:00,
2013-06-11 17:00:00,67.3,61.6,29.70,WNW,283,2.0,11.0,82,0.00,,,0.18,Wunderground v.1.15,2013-06-11 21:00:00,
2013-06-11 17:05:00,67.2,61.5,29.70,NE,36,2.0,11.0,82,0.00,,,0.18,Wunderground v.1.15,2013-06-11 21:05:00,
2013-06-11 17:10:00,67.1,61.1,29.70,WNW,283,1.0,11.0,81,0.00,,,0.18,Wunderground v.1.15,2013-06-11 21:10:00,
2013-06-11 17:15:00,66.9,60.9,29.70,West,280,2.0,11.0,81,0.00,,,0.18,Wunderground v.1.15,2013-06-11 21:15:00,
2013-06-11 17:25:00,66.9,61.2,29.70,WSW,243,1.0,11.0,82,0.00,,,0.18,Wunderground v.1.15,2013-06-11 21:25:00,
2013-06-11 17:30:00,67.0,61.3,29.70,North,360,1.0,1.0,82,0.00,,,0.18,Wunderground v.1.15,2013-06-11 21:30:00,
2013-06-11 17:35:00,67.1,61.4,29.70,NW,317,1.0,11.0,82,0.00,,,0.18,Wunderground v.1.15,2013-06-11 21:35:00,
2013-06-11 17:40:00,67.4,62.1,29.70,NW,317,0.0,11.0,83,0.00,,,0.18,Wunderground v.1.15,2013-06-11 21:40:00,
2013-06-11 17:45:00,67.5,61.8,29.70,NW,311,1.0,11.0,82,0.00,,,0.18,Wunderground v.1.15,2013-06-11 21:45:00,
2013-06-11 17:50:00,67.6,61.9,29.70,West,265,1.0,1.0,82,0.00,,,0.18,Wunderground v.1.15,2013-06-11 21:50:00,
2013-06-11 17:55:00,68.0,61.9,29.70,WNW,284,1.0,11.0,81,0.00,,,0.18,Wunderground v.1.15,2013-06-11 21:55:00,
2013-06-11 18:05:00,67.9,61.1,29.71,WNW,296,1.0,11.0,79,0.00,,,0.18,Wunderground v.1.15,2013-06-11 22:05:00,
2013-06-11 18:10:00,67.7,61.0,29.70,WNW,285,2.0,11.0,79,0.00,,,0.18,Wunderground v.1.15,2013-06-11 22:10:00,
2013-06-11 18:15:00,67.6,60.9,29.70,WNW,298,1.0,11.0,79,0.00,,,0.18,Wunderground v.1.15,2013-06-11 22:15:00,
2013-06-11 18:20:00,67.4,61.0,29.70,WNW,300,1.0,11.0,80,0.00,,,0.18,Wunderground v.1.15,2013-06-11 22:20:00,
2013-06-11 18:25:00,67.3,60.9,29.71,NNW,348,0.0,11.0,80,0.00,,,0.18,Wunderground v.1.15,2013-06-11 22:25:00,
2013-06-11 18:30:00,67.1,60.7,29.71,NW,323,1.0,1.0,80,0.00,,,0.18,Wunderground v.1.15,2013-06-11 22:30:00,
2013-06-11 18:35:00,67.1,61.1,29.71,NW,306,0.0,11.0,81,0.00,,,0.18,Wunderground v.1.15,2013-06-11 22:35:00,
2013-06-11 18:40:00,66.9,60.5,29.71,NW,305,0.0,11.0,80,0.00,,,0.18,Wunderground v.1.15,2013-06-11 22:40:00,
2013-06-11 18:50:00,67.0,61.0,29.71,NW,306,0.0,11.0,81,0.00,,,0.18,Wunderground v.1.15,2013-06-11 22:50:00,
2013-06-11 18:55:00,67.0,61.0,29.71,North,355,1.0,11.0,81,0.00,,,0.18,Wunderground v.1.15,2013-06-11 22:55:00,
2013-06-11 19:00:00,67.0,61.0,29.72,NNW,341,1.0,1.0,81,0.00,,,0.18,Wunderground v.1.15,2013-06-11 23:00:00,
2013-06-11 19:05:00,67.0,61.0,29.72,WNW,286,0.0,2.0,81,0.00,,,0.18,Wunderground v.1.15,2013-06-11 23:05:00,
2013-06-11 19:10:00,66.9,60.9,29.71,WNW,294,0.0,11.0,81,0.00,,,0.18,Wunderground v.1.15,2013-06-11 23:10:00,
2013-06-11 19:15:00,66.9,60.9,29.71,West,267,0.0,11.0,81,0.00,,,0.18,Wunderground v.1.15,2013-06-11 23:15:00,
2013-06-11 19:25:00,66.9,60.5,29.72,WNW,291,1.0,11.0,80,0.00,,,0.18,Wunderground v.1.15,2013-06-11 23:25:00,
2013-06-11 19:30:00,66.9,60.5,29.72,WNW,300,1.0,1.0,80,0.00,,,0.18,Wunderground v.1.15,2013-06-11 23:30:00,
2013-06-11 19:35:00,66.9,60.5,29.72,WNW,303,1.0,11.0,80,0.00,,,0.18,Wunderground v.1.15,2013-06-11 23:35:00,
2013-06-11 19:40:00,66.9,60.5,29.72,WSW,256,1.0,1.0,80,0.00,,,0.18,Wunderground v.1.15,2013-06-11 23:40:00,
2013-06-11 19:45:00,66.9,60.2,29.72,NNW,332,1.0,11.0,79,0.00,,,0.18,Wunderground v.1.15,2013-06-11 23:45:00,
2013-06-11 19:55:00,66.9,60.2,29.72,NNW,329,1.0,11.0,79,0.00,,,0.18,Wunderground v.1.15,2013-06-11 23:55:00,
2013-06-11 20:05:00,66.7,60.3,29.72,NNW,333,0.0,11.0,80,0.00,,,0.18,Wunderground v.1.15,2013-06-12 00:05:00,
2013-06-11 20:10:00,66.6,60.2,29.73,NNW,333,1.0,1.0,80,0.00,,,0.18,Wunderground v.1.15,2013-06-12 00:10:00,
2013-06-11 20:15:00,66.5,60.1,29.73,NNW,333,0.0,11.0,80,0.00,,,0.18,Wunderground v.1.15,2013-06-12 00:15:00,
2013-06-11 20:20:00,66.3,59.9,29.73,NNW,340,0.0,11.0,80,0.00,,,0.18,Wunderground v.1.15,2013-06-12 00:20:00,
2013-06-11 20:25:00,66.2,59.8,29.74,NNW,340,0.0,11.0,80,0.00,,,0.18,Wunderground v.1.15,2013-06-12 00:25:00,
2013-06-11 20:30:00,66.0,60.0,29.74,North,360,1.0,1.0,81,0.00,,,0.18,Wunderground v.1.15,2013-06-12 00:30:00,
2013-06-11 20:35:00,65.9,59.9,29.74,North,349,0.0,11.0,81,0.00,,,0.18,Wunderground v.1.15,2013-06-12 00:35:00,
2013-06-11 20:45:00,65.6,59.6,29.74,NW,318,1.0,11.0,81,0.00,,,0.18,Wunderground v.1.15,2013-06-12 00:45:00,
2013-06-11 20:50:00,65.5,59.5,29.74,NW,318,1.0,1.0,81,0.00,,,0.18,Wunderground v.1.15,2013-06-12 00:50:00,
2013-06-11 20:55:00,65.4,59.4,29.74,NNW,333,1.0,11.0,81,0.00,,,0.18,Wunderground v.1.15,2013-06-12 00:55:00,
2013-06-11 21:00:00,65.3,59.3,29.74,NNW,333,0.0,11.0,81,0.00,,,0.18,Wunderground v.1.15,2013-06-12 01:00:00,
2013-06-11 21:05:00,65.2,59.2,29.74,NNW,334,0.0,11.0,81,0.00,,,0.18,Wunderground v.1.15,2013-06-12 01:05:00,
2013-06-11 21:10:00,65.1,59.5,29.75,NNW,336,0.0,11.0,82,0.00,,,0.18,Wunderground v.1.15,2013-06-12 01:10:00,
2013-06-11 21:15:00,65.0,59.0,29.75,NW,314,1.0,11.0,81,0.00,,,0.18,Wunderground v.1.15,2013-06-12 01:15:00,
2013-06-11 21:25:00,64.6,58.6,29.75,North,355,2.0,11.0,81,0.00,,,0.18,Wunderground v.1.15,2013-06-12 01:25:00,
2013-06-11 21:30:00,64.5,58.2,29.75,NNW,345,2.0,11.0,80,0.00,,,0.18,Wunderground v.1.15,2013-06-12 01:30:00,
2013-06-11 21:35:00,64.3,58.0,29.76,NNW,346,2.0,11.0,80,0.00,,,0.18,Wunderground v.1.15,2013-06-12 01:35:00,
2013-06-11 21:40:00,64.2,57.9,29.76,North,350,2.0,11.0,80,0.00,,,0.18,Wunderground v.1.15,2013-06-12 01:40:00,
2013-06-11 21:45:00,64.0,57.7,29.76,North,355,1.0,11.0,80,0.00,,,0.18,Wunderground v.1.15,2013-06-12 01:45:00,
2013-06-11 21:50:00,63.8,57.5,29.76,North,360,2.0,11.0,80,0.00,,,0.18,Wunderground v.1.15,2013-06-12 01:50:00,
2013-06-11 21:55:00,63.7,57.4,29.77,NNW,342,2.0,11.0,80,0.00,,,0.18,Wunderground v.1.15,2013-06-12 01:55:00,
2013-06-11 22:00:00,63.5,57.2,29.77,NNW,330,1.0,11.0,80,0.00,,,0.18,Wunderground v.1.15,2013-06-12 02:00:00,
2013-06-11 22:05:00,63.4,57.1,29.77,NNW,341,1.0,11.0,80,0.00,,,0.18,Wunderground v.1.15,2013-06-12 02:05:00,
2013-06-11 22:15:00,63.1,56.8,29.78,NNE,15,1.0,11.0,80,0.00,,,0.18,Wunderground v.1.15,2013-06-12 02:15:00,
2013-06-11 22:20:00,63.0,56.7,29.78,NNW,346,1.0,1.0,80,0.00,,,0.18,Wunderground v.1.15,2013-06-12 02:20:00,
2013-06-11 22:25:00,62.8,56.5,29.79,NNW,345,1.0,3.0,80,0.00,,,0.18,Wunderground v.1.15,2013-06-12 02:25:00,
2013-06-11 22:30:00,62.5,56.2,29.79,NNE,19,2.0,11.0,80,0.00,,,0.18,Wunderground v.1.15,2013-06-12 02:30:00,
2013-06-11 22:35:00,62.3,56.4,29.79,NW,321,2.0,11.0,81,0.00,,,0.18,Wunderground v.1.15,2013-06-12 02:35:00,
2013-06-11 22:40:00,62.0,56.1,29.79,NNW,344,2.0,11.0,81,0.00,,,0.18,Wunderground v.1.15,2013-06-12 02:40:00,
2013-06-11 22:50:00,61.5,55.6,29.79,NNW,341,1.0,1.0,81,0.00,,,0.18,Wunderground v.1.15,2013-06-12 02:50:00,
2013-06-11 22:55:00,61.1,55.2,29.78,North,355,1.0,2.0,81,0.00,,,0.18,Wunderground v.1.15,2013-06-12 02:55:00,
2013-06-11 23:00:00,60.8,55.3,29.79,North,355,0.0,11.0,82,0.00,,,0.18,Wunderground v.1.15,2013-06-12 03:00:00,
2013-06-11 23:05:00,60.5,55.0,29.78,North,355,0.0,11.0,82,0.00,,,0.18,Wunderground v.1.15,2013-06-12 03:05:00,
2013-06-11 23:10:00,60.3,55.1,29.78,North,355,0.0,11.0,83,0.00,,,0.18,Wunderground v.1.15,2013-06-12 03:10:00,
2013-06-11 23:15:00,60.0,54.8,29.78,North,355,1.0,11.0,83,0.00,,,0.18,Wunderground v.1.15,2013-06-12 03:15:00,
2013-06-11 23:20:00,59.7,54.9,29.78,North,355,1.0,11.0,84,0.00,,,0.18,Wunderground v.1.15,2013-06-12 03:20:00,
2013-06-11 23:30:00,59.3,54.5,29.79,North,355,0.0,11.0,84,0.00,,,0.18,Wunderground v.1.15,2013-06-12 03:30:00,
2013-06-11 23:35:00,59.0,54.2,29.79,North,355,0.0,11.0,84,0.00,,,0.18,Wunderground v.1.15,2013-06-12 03:35:00,
2013-06-11 23:45:00,59.0,54.5,29.79,North,355,0.0,11.0,85,0.00,,,0.18,Wunderground v.1.15,2013-06-12 03:45:00,
2013-06-11 23:50:00,58.7,54.5,29.80,North,355,0.0,11.0,86,0.00,,,0.18,Wunderground v.1.15,2013-06-12 03:50:00,
2013-06-11 23:55:00,58.6,54.4,29.80,North,355,0.0,11.0,86,0.00,,,0.18,Wunderground v.1.15,2013-06-12 03:55:00,